This is the latest recevied weather packets stored in our database for station/object K7LDN-13. If no packets are shown the sender has not sent any weather packets the latest 10 day(s).
| Time | Temp. | Humidity | Pressure | Rain* | Wind** | Luminosity | Snow |
|---|---|---|---|---|---|---|---|
| 1777434861 | 7.78° C | 60% | 1023 hPa | 0 mm | - | 0 W/m² | - |
| 1777434561 | 7.78° C | 59% | 1023.2 hPa | 0 mm | - | 0 W/m² | - |
| 1777434258 | 7.78° C | 59% | 1023 hPa | 0 mm | - | 0 W/m² | - |
| 1777433955 | 7.78° C | 59% | 1023.2 hPa | 0 mm | - | 0 W/m² | - |
| 1777433652 | 7.78° C | 59% | 1023 hPa | 0 mm | - | 0 W/m² | - |
| 1777433347 | 8.33° C | 58% | 1022.9 hPa | 0 mm | - | 0 W/m² | - |
| 1777433043 | 8.33° C | 56% | 1022.9 hPa | 0 mm | - | 0 W/m² | - |
| 1777432738 | 8.33° C | 56% | 1022.7 hPa | 0 mm | - | 0 W/m² | - |
| 1777432435 | 8.89° C | 55% | 1022.9 hPa | 0 mm | - | 0 W/m² | - |
| 1777432130 | 8.89° C | 54% | 1022.7 hPa | 0 mm | - | 0 W/m² | - |
| 1777430306 | 10° C | 46% | 1022.4 hPa | 0 mm | - | 0 W/m² | - |
| 1777430006 | 10° C | 46% | 1022.4 hPa | 0 mm | - | 1 W/m² | - |
| 1777429703 | 10° C | 45% | 1022.2 hPa | 0 mm | - | 1 W/m² | - |
| 1777427271 | 12.22° C | 40% | 1022.4 hPa | 0 mm | - | 32 W/m² | - |
| 1777425448 | 12.78° C | 38% | 1022.5 hPa | 0 mm | - | 74 W/m² | - |
| 1777424841 | 12.78° C | 39% | 1022.5 hPa | 0 mm | - | 90 W/m² | - |
| 1777424536 | 12.78° C | 38% | 1022.7 hPa | 0 mm | - | 103 W/m² | - |
| 1777423016 | 12.22° C | 39% | 1022.7 hPa | 0 mm | - | 63 W/m² | - |
| 1777422407 | 13.33° C | 38% | 1022.8 hPa | 0 mm | - | 205 W/m² | - |
| 1777422102 | 12.22° C | 41% | 1022.9 hPa | 0 mm | - | 255 W/m² | - |
| 1777420890 | 12.22° C | 39% | 1022.7 hPa | 0 mm | - | 280 W/m² | - |
| 1777418469 | 12.22° C | 42% | 1023 hPa | 0 mm | - | 132 W/m² | - |
| 1777415126 | 11.67° C | 47% | 1023.2 hPa | 0 mm | - | 628 W/m² | - |
| 1777414516 | 11.67° C | 51% | 1023 hPa | 0 mm | - | 592 W/m² | - |
| 1777414219 | 11.67° C | 47% | 1023.3 hPa | 0 mm | - | 649 W/m² | - |
* Rain latest hour (hover to see other rain measurements)
** Current wind speed in m/s (hover to see current wind gust speed)